Charlton, New York
Current Conditions -  °F | °C
As of 10:03 AM on Tuesday 21 Oct 2014 (Local Time) from KALB Reporting Station
Light Rain Light Rain  
Wind Chill: 50°   Ceiling: 5500
Heat Index: 50°   Visibility: 3mi
Dew Point: 47°   Wind: 3mph
Humidity: 89%   Direction: 360°N
Pressure: 29.93"   Gusts: NA
Location:  42.9234°N, 73.8412°W
Report Text: KALB 211403Z 36003KT 3SM -RA BR FEW003 BKN055 OVC070 10/08 A2993 RMK AO2 SFC VIS 5 VIS NW 1 3/4 P0001 T01000083
Loading
Personal Weather Stations






























Interactive Weather Map
Tropical Storm Tracking
New forecast layout! Learn more

10-Day Weather Forecast

Advertisements
Track Severe Weather on mobile